createdAt,value
2018-04-08T00:01:39.400Z,101261.97
2018-04-08T00:04:07.032Z,101252.00
2018-04-08T00:06:34.710Z,101260.23
2018-04-08T00:09:02.347Z,101260.63
2018-04-08T00:11:29.964Z,101254.09
2018-04-08T00:13:57.585Z,101253.61
2018-04-08T00:16:25.268Z,101261.80
2018-04-08T00:18:52.930Z,101253.53
2018-04-08T00:21:20.579Z,101257.39
2018-04-08T00:23:48.198Z,101251.72
2018-04-08T00:26:15.840Z,101246.04
2018-04-08T00:28:43.447Z,101240.36
2018-04-08T00:31:11.131Z,101242.92
2018-04-08T00:33:38.749Z,101237.72
2018-04-08T00:36:06.384Z,101241.62
2018-04-08T00:38:34.009Z,101242.53
2018-04-08T00:41:01.652Z,101243.83
2018-04-08T00:43:29.344Z,101236.03
2018-04-08T00:45:56.980Z,101234.29
2018-04-08T00:48:24.671Z,101238.59
2018-04-08T00:50:52.311Z,101235.55
2018-04-08T00:53:19.930Z,101239.45
2018-04-08T00:55:47.656Z,101242.48
2018-04-08T00:58:15.277Z,101229.48
2018-04-08T01:00:42.920Z,101233.78
2018-04-08T01:03:10.543Z,101235.08
2018-04-08T01:05:39.013Z,101235.47
2018-04-08T01:08:06.624Z,101241.94
2018-04-08T01:10:34.361Z,101242.36
2018-04-08T01:13:02.003Z,101242.75
2018-04-08T01:15:29.644Z,101245.78
2018-04-08T01:17:57.261Z,101243.58
2018-04-08T01:20:24.896Z,101244.48
2018-04-08T01:22:52.512Z,101240.59
2018-04-08T01:25:20.227Z,101239.77
2018-04-08T01:27:47.864Z,101241.06
2018-04-08T01:30:15.488Z,101243.70
2018-04-08T01:32:43.119Z,101241.10
2018-04-08T01:35:10.732Z,101246.30
2018-04-08T01:37:38.440Z,101241.50
2018-04-08T01:40:10.861Z,101235.83
2018-04-08T01:42:38.500Z,101233.23
2018-04-08T01:45:06.149Z,101234.95
2018-04-08T01:47:33.789Z,101235.39
2018-04-08T01:50:01.413Z,101232.31
2018-04-08T01:52:29.056Z,101231.88
2018-04-08T01:54:56.672Z,101231.41
2018-04-08T01:57:24.333Z,101232.66
2018-04-08T01:59:51.948Z,101225.25
2018-04-08T02:02:19.676Z,101223.52
2018-04-08T02:04:47.345Z,101224.34
2018-04-08T02:07:15.009Z,101217.33
2018-04-08T02:09:42.629Z,101216.85
2018-04-08T02:12:10.328Z,101215.52
2018-04-08T02:14:37.993Z,101214.60
2018-04-08T02:17:05.657Z,101217.59
2018-04-08T02:19:33.325Z,101216.25
2018-04-08T02:22:01.094Z,101220.16
2018-04-08T02:24:28.716Z,101221.41
2018-04-08T02:26:56.414Z,101220.97
2018-04-08T02:29:24.043Z,101215.73
2018-04-08T02:31:51.739Z,101218.72
2018-04-08T02:34:19.398Z,101216.55
2018-04-08T02:36:47.163Z,101214.34
2018-04-08T02:39:14.780Z,101210.00
2018-04-08T02:41:42.489Z,101211.30
2018-04-08T02:44:10.157Z,101212.60
2018-04-08T02:46:37.810Z,101211.73
2018-04-08T02:49:05.459Z,101205.24
2018-04-08T02:51:33.141Z,101203.08
2018-04-08T02:54:00.783Z,101202.17
2018-04-08T02:56:28.413Z,101205.20
2018-04-08T02:58:56.129Z,101200.44
2018-04-08T03:01:23.784Z,101197.41
2018-04-08T03:03:51.462Z,101202.13
2018-04-08T03:06:19.149Z,101194.76
2018-04-08T03:08:46.788Z,101194.28
2018-04-08T03:11:14.409Z,101190.34
2018-04-08T03:13:42.109Z,101189.42
2018-04-08T03:16:09.738Z,101185.48
2018-04-08T03:18:37.424Z,101189.81
2018-04-08T03:21:05.093Z,101181.12
2018-04-08T03:23:32.739Z,101183.28
2018-04-08T03:26:00.364Z,101185.00
2018-04-08T03:28:28.009Z,101191.07
2018-04-08T03:30:55.629Z,101186.73
2018-04-08T03:33:23.268Z,101189.33
2018-04-08T03:35:50.888Z,101188.90
2018-04-08T03:38:18.530Z,101184.09
2018-04-08T03:40:46.144Z,101183.66
2018-04-08T03:43:13.784Z,101184.53
2018-04-08T03:45:41.409Z,101185.83
2018-04-08T03:48:09.052Z,101180.16
2018-04-08T03:50:36.664Z,101185.35
2018-04-08T03:53:04.282Z,101177.99
2018-04-08T03:55:31.926Z,101181.88
2018-04-08T03:57:59.616Z,101175.78
2018-04-08T04:00:27.260Z,101175.34
2018-04-08T04:02:54.889Z,101174.05
2018-04-08T04:05:22.534Z,101174.48
2018-04-08T04:07:50.156Z,101177.55
2018-04-08T04:10:17.829Z,101180.55
2018-04-08T04:12:45.449Z,101184.44
2018-04-08T04:15:13.088Z,101184.00
2018-04-08T04:17:40.821Z,101182.27
2018-04-08T04:20:20.464Z,101183.56
2018-04-08T04:22:59.753Z,101179.63
2018-04-08T04:28:30.853Z,101177.42
2018-04-08T04:30:58.513Z,101181.75
2018-04-08T04:33:26.185Z,101182.18
2018-04-08T04:35:53.853Z,101181.75
2018-04-08T04:38:21.521Z,101177.03
2018-04-08T04:40:49.180Z,101178.33
2018-04-08T04:43:16.796Z,101169.28
2018-04-08T04:45:44.507Z,101172.80
2018-04-08T04:48:12.128Z,101178.89
2018-04-08T04:50:39.772Z,101170.25
2018-04-08T04:53:07.394Z,101168.98
2018-04-08T04:55:35.034Z,101174.23
2018-04-08T04:58:02.648Z,101170.81
2018-04-08T05:00:30.290Z,101176.09
2018-04-08T05:02:57.917Z,101175.31
2018-04-08T05:05:25.588Z,101177.09
2018-04-08T05:07:53.643Z,101172.84
2018-04-08T05:10:21.332Z,101175.97
2018-04-08T05:12:49.001Z,101177.31
2018-04-08T05:15:16.662Z,101179.13
2018-04-08T05:17:44.289Z,101182.67
2018-04-08T05:20:11.918Z,101185.35
2018-04-08T05:22:39.560Z,101181.09
2018-04-08T05:25:07.176Z,101173.81
2018-04-08T05:27:34.873Z,101175.19
2018-04-08T05:30:02.533Z,101172.67
2018-04-08T05:32:30.173Z,101175.78
2018-04-08T05:34:57.975Z,101172.82
2018-04-08T05:37:25.630Z,101177.23
2018-04-08T05:39:53.260Z,101173.84
2018-04-08T05:42:20.908Z,101174.78
2018-04-08T05:44:48.533Z,101174.42
2018-04-08T05:47:16.181Z,101175.39
2018-04-08T05:49:43.806Z,101175.03
2018-04-08T05:52:11.448Z,101172.06
2018-04-08T05:54:39.065Z,101177.33
2018-04-08T05:57:06.724Z,101178.27
2018-04-08T05:59:34.380Z,101174.86
2018-04-08T06:02:02.032Z,101179.27
2018-04-08T06:04:29.658Z,101169.75
2018-04-08T06:06:57.297Z,101172.45
2018-04-08T06:09:24.937Z,101176.41
2018-04-08T06:11:52.653Z,101175.61
2018-04-08T06:14:20.272Z,101172.66
2018-04-08T06:16:47.912Z,101175.31
2018-04-08T06:19:15.533Z,101174.91
2018-04-08T06:21:43.245Z,101175.00
2018-04-08T06:24:10.865Z,101176.79
2018-04-08T06:26:38.525Z,101179.48
2018-04-08T06:29:06.228Z,101162.19
2018-04-08T06:31:33.849Z,101176.14
2018-04-08T06:34:01.489Z,101170.11
2018-04-08T06:36:29.108Z,101172.76
2018-04-08T06:38:56.753Z,101171.06
2018-04-08T06:41:24.373Z,101171.60
2018-04-08T06:43:52.013Z,101171.20
2018-04-08T06:46:19.633Z,101163.02
2018-04-08T06:48:47.332Z,101168.29
2018-04-08T06:51:14.958Z,101157.48
2018-04-08T06:53:42.592Z,101151.86
2018-04-08T06:56:10.217Z,101158.45
2018-04-08T06:58:37.876Z,101151.11
2018-04-08T07:01:05.532Z,101148.10
2018-04-08T07:03:33.190Z,101152.47
2018-04-08T07:06:00.820Z,101156.42
2018-04-08T07:08:28.461Z,101152.98
2018-04-08T07:10:56.077Z,101154.32
2018-04-08T07:13:23.752Z,101153.04
2018-04-08T07:15:51.377Z,101152.24
2018-04-08T07:18:19.036Z,101145.74
2018-04-08T07:20:46.661Z,101142.30
2018-04-08T07:23:14.397Z,101139.70
2018-04-08T07:25:42.033Z,101136.67
2018-04-08T07:28:09.677Z,101142.37
2018-04-08T07:30:37.386Z,101144.98
2018-04-08T07:33:05.020Z,101140.66
2018-04-08T07:35:32.718Z,101140.23
2018-04-08T07:38:00.398Z,101136.78
2018-04-08T07:40:28.001Z,101142.47
2018-04-08T07:42:55.626Z,101132.88
2018-04-08T07:45:23.365Z,101137.70
2018-04-08T07:47:51.081Z,101131.19
2018-04-08T07:50:18.793Z,101138.58
2018-04-08T07:52:46.407Z,101125.96
2018-04-08T07:55:14.123Z,101129.00
2018-04-08T07:57:41.788Z,101122.91
2018-04-08T08:00:09.541Z,101121.60
2018-04-08T08:02:37.158Z,101122.09
2018-04-08T08:05:04.805Z,101122.93
2018-04-08T08:07:32.426Z,101119.88
2018-04-08T08:10:00.186Z,101127.30
2018-04-08T08:12:27.809Z,101125.53
2018-04-08T08:14:55.517Z,101123.79
2018-04-08T08:17:23.140Z,101115.50
2018-04-08T08:19:50.849Z,101117.64
2018-04-08T08:22:18.471Z,101125.94
2018-04-08T08:24:46.121Z,101120.68
2018-04-08T08:27:13.741Z,101123.28
2018-04-08T08:29:41.385Z,101118.46
2018-04-08T08:32:09.000Z,101120.61
2018-04-08T08:34:36.645Z,101110.58
2018-04-08T08:37:04.276Z,101117.09
2018-04-08T08:39:31.908Z,101119.23
2018-04-08T08:41:59.600Z,101121.87
2018-04-08T08:44:27.276Z,101119.25
2018-04-08T08:46:54.892Z,101113.09
2018-04-08T08:49:22.536Z,101116.16
2018-04-08T08:51:50.158Z,101118.33
2018-04-08T08:54:17.803Z,101118.28
2018-04-08T08:56:45.478Z,101112.12
2018-04-08T08:59:13.118Z,101109.90
2018-04-08T09:01:40.748Z,101113.34
2018-04-08T09:04:08.397Z,101106.32
2018-04-08T09:06:36.072Z,101105.85
2018-04-08T09:09:03.725Z,101107.53
2018-04-08T09:11:31.345Z,101101.37
2018-04-08T09:13:58.957Z,101105.69
2018-04-08T09:16:26.597Z,101109.14
2018-04-08T09:19:04.120Z,101105.16
2018-04-08T09:21:31.766Z,101105.53
2018-04-08T09:24:04.777Z,101101.54
2018-04-08T09:26:32.413Z,101098.43
2018-04-08T09:29:00.031Z,101099.28
2018-04-08T09:31:27.705Z,101096.16
2018-04-08T09:33:55.322Z,101093.92
2018-04-08T09:36:23.066Z,101096.52
2018-04-08T09:38:50.629Z,101089.03
2018-04-08T09:41:18.353Z,101084.58
2018-04-08T09:43:45.990Z,101086.29
2018-04-08T09:46:13.676Z,101075.77
2018-04-08T09:48:41.294Z,101079.20
2018-04-08T09:51:08.938Z,101080.02
2018-04-08T09:53:36.577Z,101075.56
2018-04-08T09:56:04.209Z,101072.87
2018-04-08T09:58:32.225Z,101068.38
2018-04-08T10:04:07.390Z,101065.52
2018-04-08T10:06:35.120Z,101066.34
2018-04-08T10:09:02.741Z,101062.38
2018-04-08T10:11:30.376Z,101065.39
2018-04-08T10:13:58.010Z,101055.27
2018-04-08T10:16:25.649Z,101058.67
2018-04-08T10:18:53.262Z,101057.69
2018-04-08T10:21:20.896Z,101056.73
2018-04-08T10:23:48.510Z,101047.91
2018-04-08T10:26:16.227Z,101051.77
2018-04-08T10:28:43.886Z,101047.75
2018-04-08T10:31:11.545Z,101049.44
2018-04-08T10:33:39.210Z,101048.47
2018-04-08T10:36:06.850Z,101057.55
2018-04-08T10:38:34.469Z,101053.09
2018-04-08T10:41:02.110Z,101052.56
2018-04-08T10:43:29.724Z,101052.88
2018-04-08T10:45:57.357Z,101046.64
2018-04-08T10:48:24.982Z,101046.12
2018-04-08T10:50:52.617Z,101039.42
2018-04-08T10:53:20.233Z,101034.98
2018-04-08T10:55:47.864Z,101043.64
2018-04-08T10:58:15.550Z,101040.11
2018-04-08T11:00:43.253Z,101039.58
2018-04-08T11:03:10.872Z,101035.57
2018-04-08T11:05:38.505Z,101031.13
2018-04-08T11:08:06.122Z,101033.69
2018-04-08T11:10:33.762Z,101030.14
2018-04-08T11:13:01.377Z,101027.52
2018-04-08T11:15:29.012Z,101019.52
2018-04-08T11:17:56.630Z,101029.96
2018-04-08T11:20:24.277Z,101027.64
2018-04-08T11:22:51.900Z,101020.10
2018-04-08T11:25:19.533Z,101024.01
2018-04-08T11:27:47.173Z,101020.91
2018-04-08T11:30:14.782Z,101018.18
2018-04-08T11:32:42.417Z,101024.65
2018-04-08T11:35:10.054Z,101015.77
2018-04-08T11:37:37.702Z,101016.94
2018-04-08T11:40:05.385Z,101016.34
2018-04-08T11:42:33.041Z,101011.81
2018-04-08T11:45:00.709Z,101008.66
2018-04-08T11:47:28.373Z,101006.81
2018-04-08T11:49:55.984Z,101009.78
2018-04-08T11:52:23.621Z,101004.00
2018-04-08T11:54:51.257Z,101007.34
2018-04-08T11:57:18.902Z,101005.11
2018-04-08T11:59:46.581Z,101003.77
2018-04-08T12:02:14.221Z,100997.98
2018-04-08T12:04:41.836Z,100988.22
2018-04-08T12:07:09.469Z,100990.72
2018-04-08T12:09:37.081Z,100992.42
2018-04-08T12:12:04.719Z,100989.62
2018-04-08T12:14:32.356Z,100984.63
2018-04-08T12:17:00.023Z,100979.20
2018-04-08T12:19:27.636Z,100973.29
2018-04-08T12:21:55.269Z,100976.22
2018-04-08T12:24:22.880Z,100972.57
2018-04-08T12:26:52.907Z,100976.36
2018-04-08T12:29:20.516Z,100969.28
2018-04-08T12:31:48.145Z,100970.23
2018-04-08T12:34:15.775Z,100970.66
2018-04-08T12:36:43.454Z,100968.81
2018-04-08T12:39:11.117Z,100956.39
2018-04-08T12:41:38.750Z,100950.56
2018-04-08T12:44:06.356Z,100949.58
2018-04-08T12:46:34.012Z,100948.60
2018-04-08T12:49:01.649Z,100951.05
2018-04-08T12:51:29.262Z,100948.66
2018-04-08T12:53:56.916Z,100945.86
2018-04-08T12:56:24.540Z,100945.80
2018-04-08T12:58:52.224Z,100939.56
2018-04-08T13:01:19.980Z,100944.78
2018-04-08T13:03:47.654Z,100938.95
2018-04-08T13:06:15.270Z,100936.60
2018-04-08T13:08:42.913Z,100935.12
2018-04-08T13:11:10.527Z,100943.31
2018-04-08T13:13:38.160Z,100933.94
2018-04-08T13:16:05.773Z,100932.52
2018-04-08T13:18:33.404Z,100933.30
2018-04-08T13:21:01.436Z,100925.37
2018-04-08T13:23:29.076Z,100928.41
2018-04-08T13:25:56.721Z,100931.95
2018-04-08T13:28:24.384Z,100925.73
2018-04-08T13:30:52.044Z,100927.95
2018-04-08T13:33:19.676Z,100922.23
2018-04-08T13:35:47.369Z,100924.81
2018-04-08T13:38:15.038Z,100918.60
2018-04-08T13:40:42.697Z,100911.46
2018-04-08T13:43:10.336Z,100910.93
2018-04-08T13:45:37.952Z,100910.04
2018-04-08T13:48:05.593Z,100908.65
2018-04-08T13:50:33.205Z,100906.86
2018-04-08T13:53:00.844Z,100907.79
2018-04-08T13:55:28.572Z,100899.08
2018-04-08T13:57:56.234Z,100899.57
2018-04-08T14:00:23.897Z,100896.53
2018-04-08T14:02:51.557Z,100896.20
2018-04-08T14:05:19.221Z,100893.96
2018-04-08T14:07:46.886Z,100889.53
2018-04-08T14:10:14.497Z,100894.32
2018-04-08T14:12:42.111Z,100894.25
2018-04-08T14:15:09.769Z,100889.82
2018-04-08T14:17:37.433Z,100887.61
2018-04-08T14:20:05.085Z,100895.50
2018-04-08T14:22:32.761Z,100889.25
2018-04-08T14:25:00.425Z,100885.25
2018-04-08T14:27:28.032Z,100883.47
2018-04-08T14:29:55.746Z,100883.90
2018-04-08T14:32:23.367Z,100878.94
2018-04-08T14:34:51.004Z,100880.58
2018-04-08T14:37:18.618Z,100875.19
2018-04-08T14:39:46.293Z,100878.22
2018-04-08T14:42:13.914Z,100869.94
2018-04-08T14:44:41.613Z,100873.54
2018-04-08T14:47:09.232Z,100870.47
2018-04-08T14:49:36.945Z,100865.22
2018-04-08T14:52:04.607Z,100872.69
2018-04-08T14:54:32.246Z,100872.25
2018-04-08T14:56:59.928Z,100876.25
2018-04-08T14:59:27.561Z,100871.47
2018-04-08T15:01:55.216Z,100864.89
2018-04-08T15:04:22.853Z,100867.94
2018-04-08T15:06:50.478Z,100868.04
2018-04-08T15:09:18.141Z,100867.29
2018-04-08T15:11:45.792Z,100871.82
2018-04-08T15:14:13.455Z,100863.89
2018-04-08T15:16:41.069Z,100861.25
2018-04-08T15:19:08.709Z,100857.28
2018-04-08T15:21:36.348Z,100859.03
2018-04-08T15:24:03.995Z,100857.32
2018-04-08T15:26:31.616Z,100851.61
2018-04-08T15:28:59.257Z,100854.25
2018-04-08T15:31:26.893Z,100855.17
2018-04-08T15:33:54.501Z,100858.67
2018-04-08T15:36:22.145Z,100853.86
2018-04-08T15:38:49.761Z,100852.53
2018-04-08T15:41:17.393Z,100853.92
2018-04-08T15:43:45.013Z,100851.39
2018-04-08T15:46:12.657Z,100857.24
2018-04-08T15:48:40.300Z,100859.56
2018-04-08T15:51:08.001Z,100851.77
2018-04-08T15:53:35.661Z,100855.41
2018-04-08T15:56:03.320Z,100855.94
2018-04-08T15:58:30.983Z,100848.14
2018-04-08T16:00:58.644Z,100851.25
2018-04-08T16:03:26.308Z,100857.98
2018-04-08T16:05:53.952Z,100857.59
2018-04-08T16:08:21.645Z,100853.69
2018-04-08T16:10:49.348Z,100853.63
2018-04-08T16:13:16.960Z,100853.66
2018-04-08T16:15:44.625Z,100865.15
2018-04-08T16:18:12.237Z,100866.53
2018-04-08T16:20:39.880Z,100863.53
2018-04-08T16:23:07.497Z,100868.42
2018-04-08T16:25:35.184Z,100859.70
2018-04-08T16:28:02.832Z,100869.51
2018-04-08T16:30:30.461Z,100864.79
2018-04-08T16:32:58.081Z,100871.52
2018-04-08T16:35:25.711Z,100864.09
2018-04-08T16:37:53.385Z,100864.63
2018-04-08T16:40:21.019Z,100863.86
2018-04-08T16:42:48.628Z,100873.59
2018-04-08T16:45:16.370Z,100873.70
2018-04-08T16:47:44.430Z,100878.02
2018-04-08T16:50:12.104Z,100876.53
2018-04-08T16:52:39.765Z,100875.32
2018-04-08T16:55:07.425Z,100875.35
2018-04-08T16:57:35.084Z,100874.02
2018-04-08T17:00:02.697Z,100871.96
2018-04-08T17:02:30.334Z,100870.39
2018-04-08T17:04:57.944Z,100876.72
2018-04-08T17:07:25.585Z,100875.61
2018-04-08T17:09:53.191Z,100871.50
2018-04-08T17:12:20.861Z,100873.22
2018-04-08T17:14:48.524Z,100873.33
2018-04-08T17:17:16.213Z,100877.58
2018-04-08T17:19:43.830Z,100871.39
2018-04-08T17:22:11.509Z,100873.12
2018-04-08T17:24:39.120Z,100874.98
2018-04-08T17:27:06.758Z,100872.91
2018-04-08T17:29:34.396Z,100876.03
2018-04-08T17:32:02.032Z,100870.85
2018-04-08T17:34:29.644Z,100872.20
2018-04-08T17:36:57.284Z,100876.20
2018-04-08T17:39:24.899Z,100876.20
2018-04-08T17:41:52.540Z,100870.48
2018-04-08T17:44:20.159Z,100873.47
2018-04-08T17:46:47.793Z,100873.41
2018-04-08T17:49:15.405Z,100871.59
2018-04-08T17:51:43.042Z,100869.30
2018-04-08T17:54:10.652Z,100874.89
2018-04-08T17:56:38.293Z,100873.42
2018-04-08T17:59:05.908Z,100875.88
2018-04-08T18:01:33.600Z,100880.97
2018-04-08T18:04:01.272Z,100876.45
2018-04-08T18:06:28.893Z,100880.63
2018-04-08T18:08:56.527Z,100880.86
2018-04-08T18:11:24.252Z,100880.19
2018-04-08T18:13:51.893Z,100881.73
2018-04-08T18:16:19.543Z,100878.38
2018-04-08T18:18:47.194Z,100878.09
2018-04-08T18:21:14.804Z,100879.12
2018-04-08T18:23:42.469Z,100880.14
2018-04-08T18:26:10.084Z,100883.33
2018-04-08T18:28:37.793Z,100882.56
2018-04-08T18:31:05.413Z,100886.19
2018-04-08T18:33:33.142Z,100893.30
2018-04-08T18:36:00.755Z,100886.42
2018-04-08T18:38:28.440Z,100893.08
2018-04-08T18:40:56.056Z,100891.05
2018-04-08T18:43:23.764Z,100889.80
2018-04-08T18:45:51.392Z,100887.72
2018-04-08T18:48:19.089Z,100890.45
2018-04-08T18:50:46.759Z,100887.05
2018-04-08T18:53:14.406Z,100882.81
2018-04-08T18:55:42.019Z,100896.05
2018-04-08T18:58:09.657Z,100889.59
2018-04-08T19:00:37.279Z,100893.19
2018-04-08T19:03:04.921Z,100884.10
2018-04-08T19:05:32.558Z,100890.31
2018-04-08T19:08:00.201Z,100888.63
2018-04-08T19:10:27.817Z,100879.48
2018-04-08T19:12:55.441Z,100885.64
2018-04-08T19:15:23.068Z,100880.47
2018-04-08T19:17:56.444Z,100886.61
2018-04-08T19:20:24.084Z,100886.70
2018-04-08T19:22:51.698Z,100884.56
2018-04-08T19:25:19.341Z,100884.19
2018-04-08T19:27:46.961Z,100880.73
2018-04-08T19:30:20.021Z,100882.98
2018-04-08T19:32:47.665Z,100886.06
2018-04-08T19:35:15.307Z,100884.81
2018-04-08T19:37:42.925Z,100888.75
2018-04-08T19:40:10.567Z,100887.91
2018-04-08T19:42:38.184Z,100881.39
2018-04-08T19:45:05.826Z,100880.14
2018-04-08T19:47:33.556Z,100885.33
2018-04-08T19:50:01.306Z,100884.95
2018-04-08T19:52:28.933Z,100883.20
2018-04-08T19:54:56.633Z,100887.16
2018-04-08T19:57:24.299Z,100877.16
2018-04-08T19:59:51.934Z,100877.19
2018-04-08T20:02:19.568Z,100869.80
2018-04-08T20:04:47.231Z,100863.72
2018-04-08T20:07:15.252Z,100867.23
2018-04-08T20:09:42.909Z,100859.39
2018-04-08T20:12:10.529Z,100856.79
2018-04-08T20:14:38.165Z,100855.05
2018-04-08T20:17:05.784Z,100853.33
2018-04-08T20:19:33.425Z,100857.25
2018-04-08T20:22:01.044Z,100852.02
2018-04-08T20:24:28.691Z,100847.64
2018-04-08T20:26:56.304Z,100845.91
2018-04-08T20:29:23.952Z,100855.47
2018-04-08T20:31:51.577Z,100855.89
2018-04-08T20:34:19.230Z,100855.03
2018-04-08T20:36:46.888Z,100857.61
2018-04-08T20:39:14.520Z,100840.20
2018-04-08T20:41:42.216Z,100855.86
2018-04-08T20:44:09.876Z,100854.53
2018-04-08T20:46:37.541Z,100846.68
2018-04-08T20:49:05.256Z,100847.55
2018-04-08T20:51:32.858Z,100849.70
2018-04-08T20:54:00.524Z,100849.66
2018-04-08T20:56:28.161Z,100851.82
2018-04-08T20:58:55.853Z,100854.81
2018-04-08T21:01:23.488Z,100853.05
2018-04-08T21:03:51.108Z,100845.19
2018-04-08T21:06:18.844Z,100840.81
2018-04-08T21:08:46.501Z,100844.70
2018-04-08T21:11:14.166Z,100844.17
2018-04-08T21:13:41.781Z,100840.69
2018-04-08T21:16:09.427Z,100833.71
2018-04-08T21:18:37.155Z,100838.02
2018-04-08T21:21:04.816Z,100831.48
2018-04-08T21:23:32.432Z,100831.45
2018-04-08T21:26:00.069Z,100840.50
2018-04-08T21:28:27.692Z,100840.48
2018-04-08T21:30:55.336Z,100835.67
2018-04-08T21:33:23.024Z,100842.14
2018-04-08T21:35:50.661Z,100842.53
2018-04-08T21:38:18.356Z,100844.69
2018-04-08T21:40:46.016Z,100845.05
2018-04-08T21:43:13.629Z,100848.03
2018-04-08T21:45:41.345Z,100847.50
2018-04-08T21:48:08.984Z,100842.67
2018-04-08T21:50:36.609Z,100837.81
2018-04-08T21:53:04.247Z,100845.99
2018-04-08T21:55:31.865Z,100850.25
2018-04-08T21:57:59.548Z,100841.09
2018-04-08T22:00:27.165Z,100845.84
2018-04-08T22:02:54.804Z,100847.12
2018-04-08T22:05:22.420Z,100838.40
2018-04-08T22:07:50.097Z,100845.30
2018-04-08T22:10:17.719Z,100837.05
2018-04-08T22:12:45.420Z,100830.52
2018-04-08T22:15:13.037Z,100837.80
2018-04-08T22:17:40.677Z,100834.73
2018-04-08T22:20:08.316Z,100835.95
2018-04-08T22:22:35.952Z,100841.52
2018-04-08T22:25:03.564Z,100838.00
2018-04-08T22:27:31.200Z,100837.07
2018-04-08T22:29:58.816Z,100844.41
2018-04-08T22:32:26.517Z,100842.20
2018-04-08T22:34:54.127Z,100836.55
2018-04-08T22:37:21.772Z,100842.61
2018-04-08T22:39:49.396Z,100841.28
2018-04-08T22:42:17.036Z,100840.37
2018-04-08T22:44:44.653Z,100849.44
2018-04-08T22:47:12.297Z,100836.42
2018-04-08T22:49:39.913Z,100835.09
2018-04-08T22:52:07.568Z,100835.92
2018-04-08T22:54:35.180Z,100835.02
2018-04-08T22:57:02.836Z,100833.26
2018-04-08T22:59:30.473Z,100828.39
2018-04-08T23:01:58.092Z,100823.53
2018-04-08T23:04:25.728Z,100822.17
2018-04-08T23:06:53.387Z,100820.36
2018-04-08T23:09:21.028Z,100828.55
2018-04-08T23:11:48.674Z,100823.75
2018-04-08T23:14:16.309Z,100821.98
2018-04-08T23:16:43.921Z,100807.64
2018-04-08T23:19:11.598Z,100804.11
2018-04-08T23:21:39.229Z,100798.48
2018-04-08T23:24:06.920Z,100791.92
2018-04-08T23:26:34.593Z,100791.42
2018-04-08T23:29:02.248Z,100791.35
2018-04-08T23:31:29.868Z,100796.06
2018-04-08T23:33:57.572Z,100802.48
2018-04-08T23:36:25.193Z,100793.80
2018-04-08T23:38:52.901Z,100791.59
2018-04-08T23:41:20.516Z,100787.62
2018-04-08T23:43:48.155Z,100776.31
2018-04-08T23:46:15.886Z,100782.71
2018-04-08T23:48:43.525Z,100778.70
2018-04-08T23:51:11.141Z,100770.84
2018-04-08T23:53:38.781Z,100772.89
2018-04-08T23:56:06.396Z,100763.73
2018-04-08T23:58:34.052Z,100764.95
